createdAt,value
2022-08-17T00:00:44.062Z,26.13
2022-08-17T00:03:11.813Z,24.88
2022-08-17T00:05:47.927Z,29.05
2022-08-17T00:08:19.428Z,28.48
2022-08-17T00:10:47.935Z,27.63
2022-08-17T00:13:19.562Z,27.55
2022-08-17T00:15:48.534Z,29.10
2022-08-17T00:19:06.026Z,30.02
2022-08-17T00:21:10.664Z,30.98
2022-08-17T00:23:47.725Z,30.38
2022-08-17T00:26:34.643Z,29.35
2022-08-17T00:29:08.537Z,30.33
2022-08-17T00:31:38.634Z,29.85
2022-08-17T00:34:11.099Z,29.60
2022-08-17T00:36:40.530Z,32.15
2022-08-17T00:39:08.627Z,30.13
2022-08-17T00:41:36.700Z,30.58
2022-08-17T00:44:12.301Z,33.22
2022-08-17T00:46:43.291Z,30.35
2022-08-17T00:49:13.307Z,32.25
2022-08-17T00:51:47.399Z,33.53
2022-08-17T00:54:19.825Z,34.50
2022-08-17T00:56:52.161Z,32.78
2022-08-17T00:59:22.776Z,33.25
2022-08-17T01:01:51.985Z,33.88
2022-08-17T01:04:22.966Z,32.78
2022-08-17T01:06:54.686Z,33.30
2022-08-17T01:09:23.014Z,33.72
2022-08-17T01:11:52.392Z,36.22
2022-08-17T01:14:21.466Z,32.78
2022-08-17T01:16:50.673Z,32.63
2022-08-17T01:19:22.188Z,33.85
2022-08-17T01:21:56.138Z,31.08
2022-08-17T01:24:25.839Z,31.17
2022-08-17T01:26:53.912Z,30.40
2022-08-17T01:29:25.885Z,32.15
2022-08-17T01:31:57.816Z,32.53
2022-08-17T01:34:36.835Z,33.28
2022-08-17T01:37:12.240Z,30.80
2022-08-17T01:39:45.454Z,30.23
2022-08-17T01:42:20.277Z,30.00
2022-08-17T01:44:48.467Z,29.98
2022-08-17T01:47:16.569Z,30.05
2022-08-17T01:49:45.761Z,30.90
2022-08-17T01:52:14.495Z,32.35
2022-08-17T01:54:47.783Z,28.55
2022-08-17T01:57:16.127Z,29.33
2022-08-17T01:59:44.248Z,32.30
2022-08-17T02:02:12.382Z,30.40
2022-08-17T02:04:58.364Z,30.67
2022-08-17T02:07:27.063Z,29.70
2022-08-17T02:09:57.667Z,29.45
2022-08-17T02:12:37.252Z,29.45
2022-08-17T02:15:09.691Z,33.45
2022-08-17T02:17:37.762Z,30.83
2022-08-17T02:20:08.144Z,32.17
2022-08-17T02:22:37.367Z,35.03
2022-08-17T02:25:10.807Z,36.00
2022-08-17T02:27:40.250Z,36.10
2022-08-17T02:31:01.946Z,37.00
2022-08-17T02:33:00.266Z,34.45
2022-08-17T02:35:32.421Z,39.33
2022-08-17T02:38:01.772Z,40.47
2022-08-17T02:40:36.002Z,35.75
2022-08-17T02:43:05.673Z,41.83
2022-08-17T02:45:33.960Z,39.38
2022-08-17T02:48:02.138Z,38.17
2022-08-17T02:50:30.398Z,43.78
2022-08-17T02:53:02.532Z,40.15
2022-08-17T02:55:36.128Z,39.10
2022-08-17T02:58:04.710Z,45.35
2022-08-17T03:00:35.614Z,49.22
2022-08-17T03:03:06.028Z,37.35
2022-08-17T03:05:35.930Z,43.00
2022-08-17T03:08:04.652Z,46.00
2022-08-17T03:10:34.859Z,40.22
2022-08-17T03:13:02.922Z,45.65
2022-08-17T04:42:25.931Z,23.23
2022-08-17T04:44:54.231Z,25.35
2022-08-17T04:47:23.730Z,23.92
2022-08-17T04:49:53.593Z,28.25
2022-08-17T04:52:31.539Z,24.45
2022-08-17T04:55:10.855Z,27.42
2022-08-17T04:57:44.540Z,29.65
2022-08-17T05:00:14.448Z,25.75
2022-08-17T05:02:49.737Z,24.98
2022-08-17T05:05:20.209Z,27.05
2022-08-17T05:07:49.603Z,32.50
2022-08-17T05:10:18.217Z,26.67
2022-08-17T05:12:49.004Z,26.10
2022-08-17T05:15:17.329Z,26.63
2022-08-17T05:17:48.359Z,25.92
2022-08-17T05:20:16.844Z,27.98
2022-08-17T05:22:51.238Z,26.25
2022-08-17T05:25:25.542Z,28.58
2022-08-17T05:27:56.309Z,26.00
2022-08-17T05:30:27.948Z,27.30
2022-08-17T05:32:58.943Z,26.17
2022-08-17T05:35:28.958Z,25.05
2022-08-17T05:37:57.347Z,25.90
2022-08-17T05:40:27.372Z,27.08
2022-08-17T05:43:12.038Z,27.48
2022-08-17T05:45:54.324Z,26.60
2022-08-17T05:48:39.339Z,27.20
2022-08-17T05:51:33.209Z,28.95
2022-08-17T05:54:15.814Z,29.17
2022-08-17T05:57:04.370Z,27.23
2022-08-17T05:59:43.614Z,28.65
2022-08-17T06:02:21.391Z,28.35
2022-08-17T06:05:03.778Z,29.67
2022-08-17T06:07:37.822Z,30.15
2022-08-17T06:10:14.724Z,31.05
2022-08-17T06:12:57.147Z,34.80
2022-08-17T06:15:34.101Z,32.05
2022-08-17T06:18:05.449Z,32.38
2022-08-17T06:20:40.115Z,33.42
2022-08-17T06:23:14.397Z,32.85
2022-08-17T06:25:47.453Z,34.72
2022-08-17T06:28:24.357Z,34.53
2022-08-17T06:31:00.666Z,34.45
2022-08-17T06:33:34.859Z,34.38
2022-08-17T06:36:17.597Z,36.15
2022-08-17T06:39:00.133Z,37.42
2022-08-17T06:41:38.133Z,37.92
2022-08-17T06:44:43.211Z,36.20
2022-08-17T06:47:12.608Z,37.20
2022-08-17T06:49:54.650Z,38.40
2022-08-17T06:52:43.419Z,38.95
2022-08-17T06:55:21.422Z,39.83
2022-08-17T06:58:15.533Z,38.92
2022-08-17T07:00:48.371Z,40.72
2022-08-17T07:03:29.215Z,40.75
2022-08-17T07:06:03.169Z,42.83
2022-08-17T07:08:43.651Z,42.63
2022-08-17T07:11:19.361Z,43.42
2022-08-17T07:13:55.372Z,41.88
2022-08-17T07:16:29.231Z,41.38
2022-08-17T07:19:00.237Z,42.90
2022-08-17T07:21:40.977Z,41.05
2022-08-17T07:24:31.708Z,40.58
2022-08-17T07:27:13.674Z,40.35
2022-08-17T07:29:47.984Z,40.10
2022-08-17T07:32:19.587Z,39.35
2022-08-17T07:35:07.509Z,39.65
2022-08-17T07:37:40.194Z,39.47
2022-08-17T07:40:18.561Z,39.33
2022-08-17T07:43:23.465Z,38.45
2022-08-17T07:46:16.178Z,39.08
2022-08-17T07:48:49.725Z,41.85
2022-08-17T07:51:26.301Z,40.17
2022-08-17T07:54:12.896Z,39.60
2022-08-17T07:56:46.613Z,40.17
2022-08-17T07:59:18.150Z,38.92
2022-08-17T08:02:05.371Z,37.83
2022-08-17T08:07:38.325Z,38.05
2022-08-17T08:10:11.011Z,37.70
2022-08-17T08:12:41.320Z,38.05
2022-08-17T08:15:17.415Z,38.35
2022-08-17T08:17:54.208Z,37.30
2022-08-17T08:20:52.184Z,37.00
2022-08-17T08:23:34.930Z,37.80
2022-08-17T08:26:18.397Z,38.28
2022-08-17T08:28:52.968Z,35.65
2022-08-17T08:31:31.032Z,35.70
2022-08-17T08:34:47.415Z,35.50
2022-08-17T08:37:16.297Z,36.53
2022-08-17T08:40:00.332Z,37.47
2022-08-17T08:42:37.714Z,36.95
2022-08-17T08:45:20.577Z,36.55
2022-08-17T08:48:23.025Z,36.92
2022-08-17T08:51:03.561Z,39.60
2022-08-17T08:53:42.277Z,37.28
2022-08-17T08:56:17.659Z,38.85
2022-08-17T08:58:53.550Z,40.50
2022-08-17T09:01:31.300Z,40.05
2022-08-17T09:04:24.791Z,40.53
2022-08-17T09:07:09.294Z,43.30
2022-08-17T09:09:49.829Z,42.53
2022-08-17T09:12:29.294Z,41.47
2022-08-17T09:15:12.348Z,40.88
2022-08-17T09:18:08.565Z,40.85
2022-08-17T09:20:50.011Z,39.15
2022-08-17T09:23:32.561Z,39.45
2022-08-17T09:26:16.826Z,40.78
2022-08-17T09:28:53.102Z,39.58
2022-08-17T09:31:32.691Z,37.80
2022-08-17T09:34:06.733Z,40.25
2022-08-17T09:36:43.174Z,39.78
2022-08-17T09:39:16.455Z,39.67
2022-08-17T09:41:49.970Z,41.13
2022-08-17T09:44:26.009Z,42.05
2022-08-17T09:47:00.168Z,44.67
2022-08-17T09:49:32.848Z,43.35
2022-08-17T09:52:07.728Z,44.53
2022-08-17T09:54:40.279Z,43.75
2022-08-17T09:57:31.635Z,42.90
2022-08-17T10:00:16.583Z,44.03
2022-08-17T10:03:11.902Z,45.35
2022-08-17T10:05:48.257Z,44.08
2022-08-17T10:08:29.212Z,44.72
2022-08-17T10:11:08.652Z,45.90
2022-08-17T10:13:53.084Z,45.05
2022-08-17T10:16:28.735Z,44.45
2022-08-17T10:19:17.927Z,44.25
2022-08-17T10:22:34.653Z,43.10
2022-08-17T10:25:42.572Z,41.20
2022-08-17T10:28:25.876Z,40.88
2022-08-17T10:31:30.792Z,41.13
2022-08-17T10:34:04.758Z,38.58
2022-08-17T10:36:46.391Z,37.88
2022-08-17T10:39:27.052Z,36.72
2022-08-17T10:42:01.857Z,35.30
2022-08-17T10:44:46.447Z,34.30
2022-08-17T10:47:18.275Z,33.47
2022-08-17T10:49:49.757Z,29.83
2022-08-17T10:52:51.922Z,28.73
2022-08-17T10:55:22.070Z,27.15
2022-08-17T10:57:55.092Z,27.17
2022-08-17T11:01:00.168Z,27.73
2022-08-17T11:03:28.862Z,25.42
2022-08-17T11:06:06.385Z,27.73
2022-08-17T11:09:09.981Z,27.63
2022-08-17T11:12:09.503Z,26.88
2022-08-17T11:14:48.163Z,27.92
2022-08-17T11:17:30.836Z,26.42
2022-08-17T11:20:38.537Z,26.25
2022-08-17T11:23:43.583Z,26.85
2022-08-17T11:26:26.220Z,27.23
2022-08-17T11:29:01.474Z,27.13
2022-08-17T11:31:39.897Z,28.08
2022-08-17T11:34:18.590Z,28.13
2022-08-17T11:37:12.685Z,27.25
2022-08-17T11:40:08.317Z,27.70
2022-08-17T11:42:54.454Z,25.50
2022-08-17T11:45:55.404Z,24.80
2022-08-17T11:48:48.367Z,25.02
2022-08-17T11:51:34.744Z,23.25
2022-08-17T11:54:32.715Z,23.98
2022-08-17T11:56:56.851Z,23.23
2022-08-17T11:59:59.676Z,23.10
2022-08-17T12:02:47.442Z,22.73
2022-08-17T12:05:40.418Z,22.67
2022-08-17T12:08:20.375Z,23.05
2022-08-17T12:11:04.017Z,24.58
2022-08-17T12:13:39.560Z,23.33
2022-08-17T12:16:10.151Z,23.38
2022-08-17T12:18:42.281Z,24.48
2022-08-17T12:21:30.326Z,22.67
2022-08-17T12:24:06.595Z,22.15
2022-08-17T12:26:37.647Z,20.08
2022-08-17T12:29:18.413Z,20.77
2022-08-17T12:32:03.549Z,21.23
2022-08-17T12:34:40.804Z,20.50
2022-08-17T12:37:16.291Z,19.75
2022-08-17T12:39:52.740Z,18.60
2022-08-17T12:42:28.811Z,18.20
2022-08-17T12:44:57.453Z,18.67
2022-08-17T12:47:29.491Z,18.92
2022-08-17T12:50:29.192Z,19.13
2022-08-17T12:53:01.981Z,17.67
2022-08-17T12:55:39.013Z,18.38
2022-08-17T12:58:14.394Z,17.55
2022-08-17T13:00:49.866Z,18.38
2022-08-17T13:03:21.056Z,16.75
2022-08-17T13:05:59.961Z,18.50
2022-08-17T13:08:32.245Z,17.60
2022-08-17T13:11:03.136Z,17.88
2022-08-17T13:13:34.152Z,17.42
2022-08-17T13:16:05.067Z,19.70
2022-08-17T13:18:39.655Z,18.95
2022-08-17T13:21:23.345Z,18.83
2022-08-17T13:24:03.381Z,19.83
2022-08-17T13:26:34.938Z,20.88
2022-08-17T13:29:06.556Z,19.85
2022-08-17T13:31:51.993Z,19.77
2022-08-17T13:34:56.122Z,20.10
2022-08-17T13:37:33.170Z,19.67
2022-08-17T13:40:23.900Z,21.00
2022-08-17T13:42:54.325Z,20.67
2022-08-17T13:45:51.116Z,18.67
2022-08-17T13:48:30.336Z,17.88
2022-08-17T13:51:30.440Z,20.52
2022-08-17T13:54:22.262Z,19.95
2022-08-17T13:57:02.129Z,19.27
2022-08-17T13:59:52.714Z,18.60
2022-08-17T14:02:22.533Z,17.85
2022-08-17T14:04:54.462Z,18.58
2022-08-17T14:07:32.191Z,17.90
2022-08-17T14:10:06.821Z,18.38
2022-08-17T14:12:36.389Z,18.23
2022-08-17T14:15:05.418Z,17.83
2022-08-17T14:17:38.130Z,20.10
2022-08-17T14:20:10.683Z,21.20
2022-08-17T14:22:41.678Z,21.67
2022-08-17T14:25:13.570Z,21.70
2022-08-17T14:27:52.318Z,24.23
2022-08-17T14:30:24.947Z,23.27
2022-08-17T14:32:54.075Z,23.10
2022-08-17T14:35:24.479Z,22.40
2022-08-17T14:37:54.114Z,21.85
2022-08-17T14:40:25.768Z,22.40
2022-08-17T14:42:55.820Z,21.60
2022-08-17T14:45:29.652Z,22.80
2022-08-17T14:48:01.344Z,23.30
2022-08-17T14:50:29.676Z,22.52
2022-08-17T14:53:01.573Z,22.95
2022-08-17T14:55:32.661Z,21.10
2022-08-17T14:58:01.096Z,21.90
2022-08-17T15:00:29.653Z,21.92
2022-08-17T15:03:14.982Z,21.23
2022-08-17T15:05:57.173Z,22.55
2022-08-17T15:08:34.665Z,20.88
2022-08-17T15:11:24.419Z,22.60
2022-08-17T15:14:07.804Z,21.98
2022-08-17T15:16:40.417Z,21.27
2022-08-17T15:19:09.174Z,20.75
2022-08-17T15:21:37.834Z,19.38
2022-08-17T15:24:07.033Z,19.15
2022-08-17T15:26:37.970Z,20.88
2022-08-17T15:29:06.328Z,20.90
2022-08-17T15:31:34.714Z,20.67
2022-08-17T15:34:05.238Z,20.00
2022-08-17T15:36:36.440Z,20.08
2022-08-17T15:39:04.853Z,20.50
2022-08-17T15:41:33.291Z,20.05
2022-08-17T15:44:02.973Z,21.58
2022-08-17T15:46:31.531Z,21.08
2022-08-17T15:49:03.644Z,20.67
2022-08-17T15:51:34.906Z,21.63
2022-08-17T15:54:22.333Z,22.58
2022-08-17T15:56:51.707Z,21.88
2022-08-17T15:59:21.491Z,15.80
2022-08-17T16:03:01.563Z,10.60
2022-08-17T16:04:42.653Z,9.32
2022-08-17T16:07:12.670Z,9.65
2022-08-17T16:09:42.154Z,9.80
2022-08-17T16:12:13.060Z,8.95
2022-08-17T16:14:42.832Z,8.88
2022-08-17T16:17:38.668Z,8.13
2022-08-17T16:19:59.795Z,9.02
2022-08-17T16:22:35.596Z,8.35
2022-08-17T16:25:05.968Z,9.95
2022-08-17T16:27:34.352Z,8.85
2022-08-17T16:30:04.890Z,8.38
2022-08-17T16:32:33.191Z,8.20
2022-08-17T16:35:03.354Z,9.35
2022-08-17T16:37:32.086Z,9.25
2022-08-17T16:40:03.520Z,8.88
2022-08-17T16:42:34.101Z,9.18
2022-08-17T16:45:08.024Z,9.43
2022-08-17T16:47:44.640Z,8.60
2022-08-17T16:50:15.405Z,9.25
2022-08-17T16:52:44.004Z,8.95
2022-08-17T16:55:13.394Z,9.43
2022-08-17T16:57:47.562Z,9.02
2022-08-17T17:00:21.016Z,8.63
2022-08-17T17:02:50.068Z,8.82
2022-08-17T17:05:44.682Z,8.45
2022-08-17T17:08:25.665Z,8.85
2022-08-17T17:10:56.944Z,8.88
2022-08-17T17:13:32.308Z,8.63
2022-08-17T17:16:08.812Z,8.98
2022-08-17T17:18:42.733Z,8.80
2022-08-17T17:21:14.984Z,8.82
2022-08-17T17:23:55.080Z,8.88
2022-08-17T17:26:44.339Z,8.60
2022-08-17T17:29:27.279Z,8.07
2022-08-17T17:32:07.545Z,7.65
2022-08-17T17:34:36.403Z,7.85
2022-08-17T17:37:11.918Z,7.18
2022-08-17T17:39:49.030Z,7.53
2022-08-17T17:42:21.817Z,6.88
2022-08-17T17:44:56.179Z,6.88
2022-08-17T17:47:26.702Z,6.70
2022-08-17T17:49:54.984Z,7.68
2022-08-17T17:52:32.184Z,7.43
2022-08-17T17:55:08.678Z,7.97
2022-08-17T17:57:55.848Z,7.45
2022-08-17T18:00:27.243Z,8.15
2022-08-17T18:03:11.137Z,8.50
2022-08-17T18:05:49.741Z,7.88
2022-08-17T18:08:52.944Z,7.50
2022-08-17T18:11:58.972Z,7.25
2022-08-17T18:14:40.158Z,7.25
2022-08-17T18:17:08.703Z,7.30
2022-08-17T18:19:40.389Z,6.97
2022-08-17T18:22:14.070Z,6.65
2022-08-17T18:24:44.897Z,7.53
2022-08-17T18:27:26.516Z,7.68
2022-08-17T18:29:56.563Z,7.82
2022-08-17T18:32:34.551Z,7.60
2022-08-17T18:35:28.641Z,8.05
2022-08-17T18:37:59.575Z,7.38
2022-08-17T18:40:37.727Z,7.13
2022-08-17T18:43:13.469Z,6.25
2022-08-17T18:45:46.938Z,6.40
2022-08-17T18:48:25.360Z,6.43
2022-08-17T18:50:58.441Z,6.47
2022-08-17T18:54:02.730Z,6.80
2022-08-17T18:56:33.591Z,7.00
2022-08-17T18:59:14.473Z,6.25
2022-08-17T19:01:54.487Z,6.72
2022-08-17T19:04:35.431Z,7.18
2022-08-17T19:07:24.612Z,6.72
2022-08-17T19:09:57.614Z,7.03
2022-08-17T19:12:31.302Z,7.38
2022-08-17T19:15:01.243Z,7.50
2022-08-17T19:17:38.799Z,7.55
2022-08-17T19:20:15.376Z,7.75
2022-08-17T19:22:53.869Z,8.38
2022-08-17T19:25:27.290Z,9.45
2022-08-17T19:28:02.292Z,9.38
2022-08-17T19:30:31.970Z,9.88
2022-08-17T19:33:03.131Z,9.57
2022-08-17T19:35:42.324Z,9.90
2022-08-17T19:38:26.890Z,10.10
2022-08-17T19:41:04.956Z,10.73
2022-08-17T19:44:07.142Z,10.00
2022-08-17T19:46:48.554Z,10.38
2022-08-17T19:49:40.259Z,10.82
2022-08-17T19:52:36.532Z,10.80
2022-08-17T19:55:19.902Z,10.63
2022-08-17T19:58:01.914Z,9.73
2022-08-17T20:00:31.739Z,9.85
2022-08-17T20:03:06.340Z,9.88
2022-08-17T20:06:08.489Z,9.45
2022-08-17T20:08:30.230Z,8.52
2022-08-17T20:11:07.784Z,8.77
2022-08-17T20:13:41.193Z,8.20
2022-08-17T20:16:10.243Z,7.68
2022-08-17T20:18:47.600Z,7.55
2022-08-17T20:21:20.764Z,7.72
2022-08-17T20:23:54.452Z,7.60
2022-08-17T20:26:28.320Z,7.03
2022-08-17T20:29:10.691Z,7.35
2022-08-17T20:31:45.713Z,7.57
2022-08-17T20:34:36.895Z,7.40
2022-08-17T20:37:09.137Z,7.18
2022-08-17T20:39:42.776Z,7.43
2022-08-17T20:42:30.625Z,7.05
2022-08-17T20:45:02.837Z,7.07
2022-08-17T20:47:35.089Z,7.63
2022-08-17T20:50:07.009Z,7.00
2022-08-17T20:52:54.345Z,8.23
2022-08-17T20:55:53.193Z,7.45
2022-08-17T20:58:47.781Z,7.72
2022-08-17T21:01:35.477Z,7.93
2022-08-17T21:04:09.122Z,7.95
2022-08-17T21:07:17.324Z,8.07
2022-08-17T21:09:46.533Z,7.75
2022-08-17T21:12:42.574Z,8.23
2022-08-17T21:15:32.131Z,8.15
2022-08-17T21:18:09.766Z,8.23
2022-08-17T21:20:48.437Z,7.93
2022-08-17T21:23:37.692Z,7.88
2022-08-17T21:26:17.319Z,8.93
2022-08-17T21:29:17.923Z,8.68
2022-08-17T21:32:19.086Z,8.32
2022-08-17T21:35:20.375Z,9.00
2022-08-17T21:37:53.167Z,8.48
2022-08-17T21:40:26.204Z,9.40
2022-08-17T21:42:58.115Z,9.27
2022-08-17T21:45:28.819Z,9.35
2022-08-17T21:48:14.420Z,9.30
2022-08-17T21:50:46.134Z,9.23
2022-08-17T21:53:25.418Z,9.45
2022-08-17T21:55:55.393Z,9.48
2022-08-17T21:58:31.195Z,9.35
2022-08-17T22:01:23.496Z,8.90
2022-08-17T22:04:03.894Z,8.63
2022-08-17T22:06:38.067Z,8.73
2022-08-17T22:09:12.855Z,8.55
2022-08-17T22:12:07.315Z,8.00
2022-08-17T22:14:52.935Z,9.20
2022-08-17T22:17:24.978Z,9.52
2022-08-17T22:19:57.375Z,8.75
2022-08-17T22:22:33.562Z,9.85
2022-08-17T22:25:04.138Z,9.02
2022-08-17T22:27:56.463Z,9.30
2022-08-17T22:30:32.094Z,9.77
2022-08-17T22:33:01.873Z,9.52
2022-08-17T22:35:37.511Z,8.52
2022-08-17T22:38:33.699Z,8.90
2022-08-17T22:41:27.929Z,8.35
2022-08-17T22:43:57.480Z,8.80
2022-08-17T22:46:26.672Z,8.18
2022-08-17T22:48:57.894Z,7.53
2022-08-17T22:51:30.877Z,7.90
2022-08-17T22:54:31.229Z,7.60
2022-08-17T22:57:20.411Z,7.78
2022-08-17T22:59:51.123Z,7.95
2022-08-17T23:02:24.627Z,7.57
2022-08-17T23:04:57.490Z,7.53
2022-08-17T23:07:26.882Z,7.50
2022-08-17T23:09:55.450Z,7.28
2022-08-17T23:12:27.442Z,7.70
2022-08-17T23:15:01.594Z,7.93
2022-08-17T23:17:36.922Z,8.27
2022-08-17T23:20:08.502Z,7.45
2022-08-17T23:22:51.110Z,8.20
2022-08-17T23:25:28.109Z,7.95
2022-08-17T23:27:57.384Z,8.38
2022-08-17T23:30:28.544Z,8.38
2022-08-17T23:32:59.497Z,7.90
2022-08-17T23:35:39.931Z,7.63
2022-08-17T23:38:11.359Z,7.75
2022-08-17T23:40:40.157Z,7.65
2022-08-17T23:43:17.650Z,8.10
2022-08-17T23:45:51.935Z,7.18
2022-08-17T23:48:28.408Z,7.38
2022-08-17T23:51:09.149Z,6.60
2022-08-17T23:53:42.000Z,6.88
2022-08-17T23:56:11.628Z,6.18
2022-08-17T23:58:45.231Z,5.72
